sensor_id;sensor_type;location;lat;lon;timestamp;pressure;altitude;pressure_sealevel;temperature;humidity
27202;BME280;14717;46.924;15.474;2022-08-04T00:00:10;98017.09;;;20.42;91.94
27202;BME280;14717;46.924;15.474;2022-08-04T00:05:12;98009.47;;;19.95;93.33
27202;BME280;14717;46.924;15.474;2022-08-04T00:10:21;98015.25;;;19.66;95.15
27202;BME280;14717;46.924;15.474;2022-08-04T00:12:50;98017.50;;;19.72;94.83
27202;BME280;14717;46.924;15.474;2022-08-04T00:15:16;98007.56;;;19.75;94.72
27202;BME280;14717;46.924;15.474;2022-08-04T00:17:52;98017.84;;;19.71;94.39
27202;BME280;14717;46.924;15.474;2022-08-04T00:20:20;98012.69;;;19.61;94.70
27202;BME280;14717;46.924;15.474;2022-08-04T00:22:47;98018.00;;;19.86;94.42
27202;BME280;14717;46.924;15.474;2022-08-04T00:25:12;98009.50;;;20.07;92.80
27202;BME280;14717;46.924;15.474;2022-08-04T00:27:38;98010.91;;;20.12;91.37
27202;BME280;14717;46.924;15.474;2022-08-04T00:30:05;98016.75;;;20.19;90.47
27202;BME280;14717;46.924;15.474;2022-08-04T00:32:31;98012.56;;;20.13;91.18
27202;BME280;14717;46.924;15.474;2022-08-04T00:34:58;98011.59;;;20.09;90.83
27202;BME280;14717;46.924;15.474;2022-08-04T00:37:24;98018.97;;;20.14;90.67
27202;BME280;14717;46.924;15.474;2022-08-04T00:39:51;98018.16;;;20.25;90.40
27202;BME280;14717;46.924;15.474;2022-08-04T00:54:33;98028.59;;;19.69;93.68
27202;BME280;14717;46.924;15.474;2022-08-04T00:57:05;98020.53;;;19.67;95.30
27202;BME280;14717;46.924;15.474;2022-08-04T01:05:20;98022.75;;;19.74;94.92
27202;BME280;14717;46.924;15.474;2022-08-04T01:13:11;98019.19;;;19.53;96.47
27202;BME280;14717;46.924;15.474;2022-08-04T01:18:21;98013.03;;;19.60;96.06
27202;BME280;14717;46.924;15.474;2022-08-04T01:26:25;98008.28;;;19.40;95.88
27202;BME280;14717;46.924;15.474;2022-08-04T01:34:19;98015.81;;;19.60;95.39
27202;BME280;14717;46.924;15.474;2022-08-04T01:36:53;98011.38;;;19.59;95.13
27202;BME280;14717;46.924;15.474;2022-08-04T01:39:20;98013.69;;;19.13;96.89
27202;BME280;14717;46.924;15.474;2022-08-04T01:42:04;98002.22;;;19.06;98.23
27202;BME280;14717;46.924;15.474;2022-08-04T01:44:30;98009.00;;;19.05;98.00
27202;BME280;14717;46.924;15.474;2022-08-04T01:46:56;97998.03;;;19.12;97.70
27202;BME280;14717;46.924;15.474;2022-08-04T01:49:28;97999.53;;;19.09;96.95
27202;BME280;14717;46.924;15.474;2022-08-04T01:51:53;97996.31;;;19.19;95.36
27202;BME280;14717;46.924;15.474;2022-08-04T01:54:21;97998.19;;;18.95;96.01
27202;BME280;14717;46.924;15.474;2022-08-04T01:56:48;97995.03;;;18.76;96.60
27202;BME280;14717;46.924;15.474;2022-08-04T01:59:17;98000.78;;;18.59;97.75
27202;BME280;14717;46.924;15.474;2022-08-04T02:01:42;97998.72;;;18.48;98.25
27202;BME280;14717;46.924;15.474;2022-08-04T02:04:16;97998.03;;;18.51;98.97
27202;BME280;14717;46.924;15.474;2022-08-04T02:06:57;97995.84;;;18.56;98.18
27202;BME280;14717;46.924;15.474;2022-08-04T02:14:29;97987.19;;;18.49;97.10
27202;BME280;14717;46.924;15.474;2022-08-04T02:17:11;97992.16;;;18.44;97.61
27202;BME280;14717;46.924;15.474;2022-08-04T02:20:11;97988.31;;;18.48;98.02
27202;BME280;14717;46.924;15.474;2022-08-04T02:22:46;97978.50;;;18.42;98.53
27202;BME280;14717;46.924;15.474;2022-08-04T02:25:21;97988.72;;;18.38;98.93
27202;BME280;14717;46.924;15.474;2022-08-04T02:28:00;97973.88;;;18.46;98.29
27202;BME280;14717;46.924;15.474;2022-08-04T02:30:33;97980.44;;;18.50;96.82
27202;BME280;14717;46.924;15.474;2022-08-04T02:33:06;97985.06;;;18.46;97.95
27202;BME280;14717;46.924;15.474;2022-08-04T02:35:37;97979.53;;;18.38;96.69
27202;BME280;14717;46.924;15.474;2022-08-04T02:38:27;97974.59;;;18.35;96.70
27202;BME280;14717;46.924;15.474;2022-08-04T02:40:58;97969.41;;;18.25;98.90
27202;BME280;14717;46.924;15.474;2022-08-04T02:43:24;97968.53;;;18.33;99.67
27202;BME280;14717;46.924;15.474;2022-08-04T02:45:54;97974.13;;;18.53;98.82
27202;BME280;14717;46.924;15.474;2022-08-04T02:48:22;97967.19;;;18.59;97.72
27202;BME280;14717;46.924;15.474;2022-08-04T02:50:50;97967.66;;;18.61;97.68
27202;BME280;14717;46.924;15.474;2022-08-04T02:53:20;97964.44;;;18.71;97.18
27202;BME280;14717;46.924;15.474;2022-08-04T02:55:47;97970.16;;;18.75;96.66
27202;BME280;14717;46.924;15.474;2022-08-04T02:58:14;97972.38;;;18.69;97.04
27202;BME280;14717;46.924;15.474;2022-08-04T03:00:41;97967.88;;;18.77;96.67
27202;BME280;14717;46.924;15.474;2022-08-04T03:03:23;97974.28;;;18.77;96.81
27202;BME280;14717;46.924;15.474;2022-08-04T03:37:18;97957.69;;;18.03;100.00
27202;BME280;14717;46.924;15.474;2022-08-04T04:00:06;97965.16;;;17.90;99.87
27202;BME280;14717;46.924;15.474;2022-08-04T04:02:43;97965.28;;;17.94;99.82
27202;BME280;14717;46.924;15.474;2022-08-04T04:16:35;97964.34;;;17.90;100.00
27202;BME280;14717;46.924;15.474;2022-08-04T04:22:06;97965.25;;;18.11;100.00
27202;BME280;14717;46.924;15.474;2022-08-04T04:24:44;97970.59;;;18.24;99.44
27202;BME280;14717;46.924;15.474;2022-08-04T04:27:39;97969.88;;;18.27;99.71
27202;BME280;14717;46.924;15.474;2022-08-04T04:36:10;97973.63;;;18.02;100.00
27202;BME280;14717;46.924;15.474;2022-08-04T04:41:35;97975.81;;;17.97;100.00
27202;BME280;14717;46.924;15.474;2022-08-04T04:44:39;97983.81;;;18.07;100.00
27202;BME280;14717;46.924;15.474;2022-08-04T04:47:36;97981.31;;;18.14;100.00
27202;BME280;14717;46.924;15.474;2022-08-04T04:50:10;97979.88;;;18.36;100.00
27202;BME280;14717;46.924;15.474;2022-08-04T04:53:01;97985.63;;;18.60;100.00
27202;BME280;14717;46.924;15.474;2022-08-04T04:55:58;97990.53;;;18.63;98.84
27202;BME280;14717;46.924;15.474;2022-08-04T04:58:25;97992.03;;;18.61;99.10
27202;BME280;14717;46.924;15.474;2022-08-04T05:00:56;97991.91;;;18.57;100.00
27202;BME280;14717;46.924;15.474;2022-08-04T05:06:49;97993.19;;;18.80;98.58
27202;BME280;14717;46.924;15.474;2022-08-04T05:09:41;97984.38;;;18.90;99.22
27202;BME280;14717;46.924;15.474;2022-08-04T05:12:16;97983.88;;;18.88;98.82
27202;BME280;14717;46.924;15.474;2022-08-04T05:14:47;97985.44;;;18.97;98.01
27202;BME280;14717;46.924;15.474;2022-08-04T05:17:24;97983.56;;;19.10;97.83
27202;BME280;14717;46.924;15.474;2022-08-04T05:20:10;97989.94;;;19.30;97.43
27202;BME280;14717;46.924;15.474;2022-08-04T05:23:25;97987.88;;;19.39;96.46
27202;BME280;14717;46.924;15.474;2022-08-04T05:25:48;97990.91;;;19.34;94.80
27202;BME280;14717;46.924;15.474;2022-08-04T05:28:25;97990.69;;;19.51;94.89
27202;BME280;14717;46.924;15.474;2022-08-04T05:31:15;97984.75;;;19.64;93.92
27202;BME280;14717;46.924;15.474;2022-08-04T05:34:07;97979.28;;;19.80;93.84
27202;BME280;14717;46.924;15.474;2022-08-04T05:36:43;97983.66;;;20.01;93.03
27202;BME280;14717;46.924;15.474;2022-08-04T05:39:14;97989.28;;;20.25;91.40
27202;BME280;14717;46.924;15.474;2022-08-04T05:41:42;97984.94;;;20.39;88.26
27202;BME280;14717;46.924;15.474;2022-08-04T05:44:09;97983.97;;;20.59;90.50
27202;BME280;14717;46.924;15.474;2022-08-04T05:46:35;97980.94;;;20.64;89.21
27202;BME280;14717;46.924;15.474;2022-08-04T05:49:01;97988.16;;;20.77;88.64
27202;BME280;14717;46.924;15.474;2022-08-04T05:51:27;97984.78;;;20.71;86.51
27202;BME280;14717;46.924;15.474;2022-08-04T05:53:55;97984.34;;;20.96;83.59
27202;BME280;14717;46.924;15.474;2022-08-04T05:56:22;97985.88;;;21.21;82.55
27202;BME280;14717;46.924;15.474;2022-08-04T05:58:49;97995.47;;;21.32;84.00
27202;BME280;14717;46.924;15.474;2022-08-04T06:01:16;97987.91;;;21.48;83.43
27202;BME280;14717;46.924;15.474;2022-08-04T06:03:44;97987.22;;;21.51;83.48
27202;BME280;14717;46.924;15.474;2022-08-04T06:06:12;97994.63;;;21.59;82.63
27202;BME280;14717;46.924;15.474;2022-08-04T06:08:39;97981.88;;;21.77;82.94
27202;BME280;14717;46.924;15.474;2022-08-04T06:11:07;97984.16;;;21.86;84.22
27202;BME280;14717;46.924;15.474;2022-08-04T06:13:41;97986.50;;;21.84;83.74
27202;BME280;14717;46.924;15.474;2022-08-04T06:16:08;97985.88;;;21.91;82.10
27202;BME280;14717;46.924;15.474;2022-08-04T06:18:36;97987.78;;;22.18;81.12
27202;BME280;14717;46.924;15.474;2022-08-04T06:21:05;97985.53;;;22.23;79.51
27202;BME280;14717;46.924;15.474;2022-08-04T06:23:34;97991.16;;;22.38;78.91
27202;BME280;14717;46.924;15.474;2022-08-04T06:26:02;97980.75;;;22.58;78.27
27202;BME280;14717;46.924;15.474;2022-08-04T06:28:30;97976.91;;;22.65;76.07
27202;BME280;14717;46.924;15.474;2022-08-04T06:30:56;97985.34;;;22.81;78.46
27202;BME280;14717;46.924;15.474;2022-08-04T06:33:29;97982.59;;;22.84;77.13
27202;BME280;14717;46.924;15.474;2022-08-04T06:36:00;97984.78;;;22.75;77.60
27202;BME280;14717;46.924;15.474;2022-08-04T06:38:28;97979.88;;;22.72;77.45
27202;BME280;14717;46.924;15.474;2022-08-04T06:40:55;97978.84;;;22.80;76.32
27202;BME280;14717;46.924;15.474;2022-08-04T06:43:25;97974.09;;;23.18;77.06
27202;BME280;14717;46.924;15.474;2022-08-04T06:45:52;97982.25;;;23.42;73.15
27202;BME280;14717;46.924;15.474;2022-08-04T06:48:18;97969.94;;;23.50;71.80
27202;BME280;14717;46.924;15.474;2022-08-04T06:50:47;97979.34;;;23.76;72.25
27202;BME280;14717;46.924;15.474;2022-08-04T06:53:13;97966.34;;;23.94;69.38
27202;BME280;14717;46.924;15.474;2022-08-04T06:55:41;97969.53;;;24.15;69.04
27202;BME280;14717;46.924;15.474;2022-08-04T06:58:07;97972.06;;;24.20;69.68
27202;BME280;14717;46.924;15.474;2022-08-04T07:00:34;97971.44;;;24.30;69.46
27202;BME280;14717;46.924;15.474;2022-08-04T07:03:01;97966.88;;;24.25;67.17
27202;BME280;14717;46.924;15.474;2022-08-04T07:05:27;97983.09;;;24.50;65.95
27202;BME280;14717;46.924;15.474;2022-08-04T07:07:53;97980.47;;;24.64;65.16
27202;BME280;14717;46.924;15.474;2022-08-04T07:10:20;97973.84;;;24.79;64.40
27202;BME280;14717;46.924;15.474;2022-08-04T07:12:47;97979.03;;;24.99;65.46
27202;BME280;14717;46.924;15.474;2022-08-04T07:15:12;97976.75;;;25.12;64.55
27202;BME280;14717;46.924;15.474;2022-08-04T07:17:38;97976.94;;;25.25;65.38
27202;BME280;14717;46.924;15.474;2022-08-04T07:20:05;97978.53;;;25.23;62.56
27202;BME280;14717;46.924;15.474;2022-08-04T07:22:31;97985.34;;;25.19;64.54
27202;BME280;14717;46.924;15.474;2022-08-04T07:24:57;97983.28;;;25.16;62.68
27202;BME280;14717;46.924;15.474;2022-08-04T07:27:24;97985.34;;;25.19;60.62
27202;BME280;14717;46.924;15.474;2022-08-04T07:29:50;97991.63;;;25.34;57.55
27202;BME280;14717;46.924;15.474;2022-08-04T07:32:19;97977.22;;;25.46;61.39
27202;BME280;14717;46.924;15.474;2022-08-04T07:34:46;97977.50;;;25.67;56.81
27202;BME280;14717;46.924;15.474;2022-08-04T07:37:13;97976.63;;;25.99;53.27
27202;BME280;14717;46.924;15.474;2022-08-04T07:39:39;97982.06;;;26.14;53.58
27202;BME280;14717;46.924;15.474;2022-08-04T07:42:04;97970.91;;;26.35;49.97
27202;BME280;14717;46.924;15.474;2022-08-04T07:44:33;97974.72;;;26.53;48.50
27202;BME280;14717;46.924;15.474;2022-08-04T07:47:01;97969.44;;;26.52;47.35
27202;BME280;14717;46.924;15.474;2022-08-04T07:49:27;97972.66;;;26.50;50.59
27202;BME280;14717;46.924;15.474;2022-08-04T07:51:53;97973.13;;;26.56;51.28
27202;BME280;14717;46.924;15.474;2022-08-04T07:54:19;97976.81;;;26.63;51.20
27202;BME280;14717;46.924;15.474;2022-08-04T07:56:45;97970.34;;;26.66;51.92
27202;BME280;14717;46.924;15.474;2022-08-04T07:59:14;97964.88;;;26.87;52.49
27202;BME280;14717;46.924;15.474;2022-08-04T08:01:40;97969.25;;;26.84;53.71
27202;BME280;14717;46.924;15.474;2022-08-04T08:04:06;97962.47;;;26.96;54.51
27202;BME280;14717;46.924;15.474;2022-08-04T08:06:37;97966.69;;;27.26;54.43
27202;BME280;14717;46.924;15.474;2022-08-04T08:09:23;97971.91;;;27.10;53.95
27202;BME280;14717;46.924;15.474;2022-08-04T08:11:50;97974.81;;;27.31;54.83
27202;BME280;14717;46.924;15.474;2022-08-04T08:14:17;97968.75;;;27.36;52.68
27202;BME280;14717;46.924;15.474;2022-08-04T08:16:43;97965.28;;;27.70;55.50
27202;BME280;14717;46.924;15.474;2022-08-04T08:19:09;97958.00;;;27.83;54.41
27202;BME280;14717;46.924;15.474;2022-08-04T08:21:34;97960.06;;;27.92;53.54
27202;BME280;14717;46.924;15.474;2022-08-04T08:24:00;97957.63;;;28.01;52.52
27202;BME280;14717;46.924;15.474;2022-08-04T08:26:27;97968.28;;;28.18;50.24
27202;BME280;14717;46.924;15.474;2022-08-04T08:28:52;97956.47;;;28.20;48.75
27202;BME280;14717;46.924;15.474;2022-08-04T08:31:18;97954.03;;;28.32;49.89
27202;BME280;14717;46.924;15.474;2022-08-04T08:33:46;97953.25;;;28.63;50.52
27202;BME280;14717;46.924;15.474;2022-08-04T08:39:02;97953.25;;;28.73;46.62
27202;BME280;14717;46.924;15.474;2022-08-04T08:56:04;97966.56;;;29.28;46.24
27202;BME280;14717;46.924;15.474;2022-08-04T08:58:56;97969.44;;;29.21;44.65
27202;BME280;14717;46.924;15.474;2022-08-04T09:04:41;97969.41;;;29.28;44.82
27202;BME280;14717;46.924;15.474;2022-08-04T09:13:23;97967.25;;;29.56;42.91
27202;BME280;14717;46.924;15.474;2022-08-04T09:19:09;97982.25;;;29.81;45.23
27202;BME280;14717;46.924;15.474;2022-08-04T09:24:46;97961.84;;;29.89;41.78
27202;BME280;14717;46.924;15.474;2022-08-04T09:27:29;97961.31;;;30.08;42.80
27202;BME280;14717;46.924;15.474;2022-08-04T09:30:03;97958.06;;;30.06;42.00
27202;BME280;14717;46.924;15.474;2022-08-04T09:40:50;97959.91;;;30.30;42.65
27202;BME280;14717;46.924;15.474;2022-08-04T09:43:42;97955.66;;;30.58;42.06
27202;BME280;14717;46.924;15.474;2022-08-04T09:49:13;97934.81;;;31.05;42.23
27202;BME280;14717;46.924;15.474;2022-08-04T10:00:09;97928.88;;;31.26;41.72
27202;BME280;14717;46.924;15.474;2022-08-04T10:02:38;97933.75;;;31.25;41.62
27202;BME280;14717;46.924;15.474;2022-08-04T10:05:12;97931.41;;;31.17;40.95
27202;BME280;14717;46.924;15.474;2022-08-04T10:08:01;97929.63;;;31.30;42.29
27202;BME280;14717;46.924;15.474;2022-08-04T10:13:45;97914.25;;;31.53;42.15
27202;BME280;14717;46.924;15.474;2022-08-04T10:16:51;97916.25;;;31.56;40.94
27202;BME280;14717;46.924;15.474;2022-08-04T10:19:26;97917.31;;;31.39;40.61
27202;BME280;14717;46.924;15.474;2022-08-04T10:22:16;97924.41;;;31.58;41.09
27202;BME280;14717;46.924;15.474;2022-08-04T10:25:02;97916.19;;;31.93;40.04
27202;BME280;14717;46.924;15.474;2022-08-04T10:27:35;97913.50;;;31.49;41.00
27202;BME280;14717;46.924;15.474;2022-08-04T10:30:05;97920.16;;;31.39;40.79
27202;BME280;14717;46.924;15.474;2022-08-04T10:32:54;97916.56;;;31.65;40.60
27202;BME280;14717;46.924;15.474;2022-08-04T10:35:24;97923.56;;;31.61;40.04
27202;BME280;14717;46.924;15.474;2022-08-04T10:40:45;97913.38;;;31.86;39.56
27202;BME280;14717;46.924;15.474;2022-08-04T10:43:14;97910.41;;;32.22;39.55
27202;BME280;14717;46.924;15.474;2022-08-04T10:45:48;97917.00;;;32.20;39.18
27202;BME280;14717;46.924;15.474;2022-08-04T10:51:06;97907.94;;;32.24;40.71
27202;BME280;14717;46.924;15.474;2022-08-04T10:53:37;97907.56;;;32.22;38.55
27202;BME280;14717;46.924;15.474;2022-08-04T10:56:09;97908.66;;;32.28;39.14
27202;BME280;14717;46.924;15.474;2022-08-04T10:58:52;97903.81;;;32.25;39.74
27202;BME280;14717;46.924;15.474;2022-08-04T11:01:26;97912.38;;;32.25;40.71
27202;BME280;14717;46.924;15.474;2022-08-04T11:04:00;97898.00;;;32.32;38.93
27202;BME280;14717;46.924;15.474;2022-08-04T11:06:28;97896.47;;;32.24;37.43
27202;BME280;14717;46.924;15.474;2022-08-04T11:08:55;97886.31;;;32.46;39.55
27202;BME280;14717;46.924;15.474;2022-08-04T11:11:40;97888.69;;;32.74;39.41
27202;BME280;14717;46.924;15.474;2022-08-04T11:14:14;97891.69;;;32.67;37.97
27202;BME280;14717;46.924;15.474;2022-08-04T11:22:09;97882.19;;;32.70;38.00
27202;BME280;14717;46.924;15.474;2022-08-04T11:27:36;97878.72;;;32.59;37.74
27202;BME280;14717;46.924;15.474;2022-08-04T11:30:06;97874.31;;;32.28;38.40
27202;BME280;14717;46.924;15.474;2022-08-04T11:33:04;97868.28;;;32.72;38.87
27202;BME280;14717;46.924;15.474;2022-08-04T11:38:34;97867.38;;;32.75;37.77
27202;BME280;14717;46.924;15.474;2022-08-04T11:41:09;97862.75;;;32.81;38.97
27202;BME280;14717;46.924;15.474;2022-08-04T11:43:52;97861.38;;;33.11;38.59
27202;BME280;14717;46.924;15.474;2022-08-04T11:49:04;97865.91;;;32.86;41.92
27202;BME280;14717;46.924;15.474;2022-08-04T11:51:32;97865.91;;;33.09;39.34
27202;BME280;14717;46.924;15.474;2022-08-04T11:54:00;97857.78;;;33.46;38.50
27202;BME280;14717;46.924;15.474;2022-08-04T11:56:26;97859.16;;;33.38;38.19
27202;BME280;14717;46.924;15.474;2022-08-04T11:58:53;97857.31;;;33.67;38.28
27202;BME280;14717;46.924;15.474;2022-08-04T12:01:27;97860.81;;;33.39;37.92
27202;BME280;14717;46.924;15.474;2022-08-04T12:04:17;97859.31;;;33.31;39.09
27202;BME280;14717;46.924;15.474;2022-08-04T12:07:04;97854.19;;;33.42;37.16
27202;BME280;14717;46.924;15.474;2022-08-04T12:09:41;97851.47;;;33.54;38.40
27202;BME280;14717;46.924;15.474;2022-08-04T12:12:34;97847.53;;;33.64;39.62
27202;BME280;14717;46.924;15.474;2022-08-04T12:17:35;97851.56;;;33.67;37.42
27202;BME280;14717;46.924;15.474;2022-08-04T12:20:04;97847.41;;;33.87;37.08
27202;BME280;14717;46.924;15.474;2022-08-04T12:22:36;97848.81;;;33.98;36.74
27202;BME280;14717;46.924;15.474;2022-08-04T12:25:06;97846.13;;;33.72;35.92
27202;BME280;14717;46.924;15.474;2022-08-04T12:27:44;97843.81;;;33.48;37.00
27202;BME280;14717;46.924;15.474;2022-08-04T12:30:12;97840.63;;;33.62;37.17
27202;BME280;14717;46.924;15.474;2022-08-04T12:32:44;97847.41;;;33.52;36.30
27202;BME280;14717;46.924;15.474;2022-08-04T12:35:19;97844.06;;;33.73;36.12
27202;BME280;14717;46.924;15.474;2022-08-04T12:37:57;97856.72;;;33.37;37.01
27202;BME280;14717;46.924;15.474;2022-08-04T12:40:38;97840.78;;;33.55;37.58
27202;BME280;14717;46.924;15.474;2022-08-04T12:43:31;97837.47;;;33.37;37.84
27202;BME280;14717;46.924;15.474;2022-08-04T12:45:57;97836.94;;;33.61;36.03
27202;BME280;14717;46.924;15.474;2022-08-04T12:48:26;97828.25;;;33.65;37.65
27202;BME280;14717;46.924;15.474;2022-08-04T12:50:54;97829.72;;;33.73;37.90
27202;BME280;14717;46.924;15.474;2022-08-04T12:53:25;97830.22;;;33.87;37.35
27202;BME280;14717;46.924;15.474;2022-08-04T12:55:51;97833.19;;;33.99;36.78
27202;BME280;14717;46.924;15.474;2022-08-04T12:58:20;97830.44;;;34.12;36.82
27202;BME280;14717;46.924;15.474;2022-08-04T13:00:55;97827.13;;;33.62;36.79
27202;BME280;14717;46.924;15.474;2022-08-04T13:03:28;97817.03;;;33.90;35.98
27202;BME280;14717;46.924;15.474;2022-08-04T13:05:55;97821.81;;;33.96;34.94
27202;BME280;14717;46.924;15.474;2022-08-04T13:08:21;97821.38;;;33.97;35.71
27202;BME280;14717;46.924;15.474;2022-08-04T13:10:51;97817.44;;;34.07;35.87
27202;BME280;14717;46.924;15.474;2022-08-04T13:13:20;97812.56;;;34.04;36.77
27202;BME280;14717;46.924;15.474;2022-08-04T13:15:59;97804.03;;;33.85;35.97
27202;BME280;14717;46.924;15.474;2022-08-04T13:18:28;97808.94;;;33.85;36.05
27202;BME280;14717;46.924;15.474;2022-08-04T13:20:54;97804.31;;;34.22;35.70
27202;BME280;14717;46.924;15.474;2022-08-04T13:23:24;97802.34;;;33.88;34.60
27202;BME280;14717;46.924;15.474;2022-08-04T13:25:52;97799.28;;;33.79;34.52
27202;BME280;14717;46.924;15.474;2022-08-04T13:28:26;97796.59;;;33.88;34.23
27202;BME280;14717;46.924;15.474;2022-08-04T13:30:58;97783.78;;;34.08;35.93
27202;BME280;14717;46.924;15.474;2022-08-04T13:33:34;97790.88;;;34.35;34.55
27202;BME280;14717;46.924;15.474;2022-08-04T13:36:00;97784.72;;;34.37;34.08
27202;BME280;14717;46.924;15.474;2022-08-04T13:38:27;97785.22;;;34.32;33.81
27202;BME280;14717;46.924;15.474;2022-08-04T13:40:59;97785.03;;;34.54;33.64
27202;BME280;14717;46.924;15.474;2022-08-04T13:43:29;97777.63;;;34.85;33.54
27202;BME280;14717;46.924;15.474;2022-08-04T13:46:04;97772.84;;;34.79;35.39
27202;BME280;14717;46.924;15.474;2022-08-04T13:48:36;97774.56;;;34.48;35.00
27202;BME280;14717;46.924;15.474;2022-08-04T13:51:04;97773.03;;;34.43;34.11
27202;BME280;14717;46.924;15.474;2022-08-04T13:53:35;97774.47;;;34.80;33.83
27202;BME280;14717;46.924;15.474;2022-08-04T13:56:04;97777.91;;;34.75;32.82
27202;BME280;14717;46.924;15.474;2022-08-04T13:58:33;97775.34;;;34.48;33.68
27202;BME280;14717;46.924;15.474;2022-08-04T14:01:14;97774.81;;;34.53;34.12
27202;BME280;14717;46.924;15.474;2022-08-04T14:06:22;97771.13;;;34.53;33.83
27202;BME280;14717;46.924;15.474;2022-08-04T14:11:35;97776.94;;;33.86;34.57
27202;BME280;14717;46.924;15.474;2022-08-04T14:19:50;97775.44;;;34.61;33.70
27202;BME280;14717;46.924;15.474;2022-08-04T14:25:11;97766.59;;;34.68;34.97
27202;BME280;14717;46.924;15.474;2022-08-04T14:27:52;97773.72;;;34.63;33.73
27202;BME280;14717;46.924;15.474;2022-08-04T14:30:29;97773.09;;;34.56;32.70
27202;BME280;14717;46.924;15.474;2022-08-04T14:32:59;97759.81;;;34.30;33.63
27202;BME280;14717;46.924;15.474;2022-08-04T14:35:25;97760.78;;;34.55;33.78
27202;BME280;14717;46.924;15.474;2022-08-04T14:37:53;97758.00;;;34.68;33.77
27202;BME280;14717;46.924;15.474;2022-08-04T14:40:30;97757.78;;;34.90;33.17
27202;BME280;14717;46.924;15.474;2022-08-04T14:42:56;97754.00;;;35.06;32.97
27202;BME280;14717;46.924;15.474;2022-08-04T14:45:38;97750.88;;;34.72;33.77
27202;BME280;14717;46.924;15.474;2022-08-04T14:48:12;97751.59;;;34.48;33.27
27202;BME280;14717;46.924;15.474;2022-08-04T14:53:25;97750.69;;;34.51;35.30
27202;BME280;14717;46.924;15.474;2022-08-04T14:55:53;97747.38;;;34.37;34.19
27202;BME280;14717;46.924;15.474;2022-08-04T14:58:25;97744.84;;;34.54;33.54
27202;BME280;14717;46.924;15.474;2022-08-04T15:00:53;97749.78;;;34.22;35.44
27202;BME280;14717;46.924;15.474;2022-08-04T15:03:20;97746.91;;;34.06;35.12
27202;BME280;14717;46.924;15.474;2022-08-04T15:05:46;97739.69;;;34.02;35.22
27202;BME280;14717;46.924;15.474;2022-08-04T15:08:12;97739.41;;;34.12;33.86
27202;BME280;14717;46.924;15.474;2022-08-04T15:10:39;97741.53;;;34.24;33.55
27202;BME280;14717;46.924;15.474;2022-08-04T15:13:06;97743.88;;;34.13;37.24
27202;BME280;14717;46.924;15.474;2022-08-04T15:15:32;97748.41;;;33.63;34.66
27202;BME280;14717;46.924;15.474;2022-08-04T15:17:58;97742.78;;;33.76;35.77
27202;BME280;14717;46.924;15.474;2022-08-04T15:20:24;97745.81;;;33.85;34.85
27202;BME280;14717;46.924;15.474;2022-08-04T15:22:49;97731.16;;;33.98;34.46
27202;BME280;14717;46.924;15.474;2022-08-04T15:25:15;97742.25;;;33.97;34.79
27202;BME280;14717;46.924;15.474;2022-08-04T15:27:42;97741.38;;;33.99;34.11
27202;BME280;14717;46.924;15.474;2022-08-04T15:30:12;97738.69;;;34.08;35.87
27202;BME280;14717;46.924;15.474;2022-08-04T15:32:42;97743.97;;;34.10;35.10
27202;BME280;14717;46.924;15.474;2022-08-04T15:35:16;97735.38;;;34.10;35.08
27202;BME280;14717;46.924;15.474;2022-08-04T15:37:58;97732.84;;;34.12;33.84
27202;BME280;14717;46.924;15.474;2022-08-04T15:43:14;97737.41;;;34.09;34.79
27202;BME280;14717;46.924;15.474;2022-08-04T15:45:50;97725.84;;;33.81;34.62
27202;BME280;14717;46.924;15.474;2022-08-04T15:51:00;97724.25;;;33.80;34.88
27202;BME280;14717;46.924;15.474;2022-08-04T15:53:30;97722.88;;;33.69;35.69
27202;BME280;14717;46.924;15.474;2022-08-04T15:55:55;97728.41;;;33.60;35.20
27202;BME280;14717;46.924;15.474;2022-08-04T15:58:22;97732.38;;;33.66;35.05
27202;BME280;14717;46.924;15.474;2022-08-04T16:19:07;97709.69;;;33.20;35.81
27202;BME280;14717;46.924;15.474;2022-08-04T16:21:34;97704.22;;;33.10;35.65
27202;BME280;14717;46.924;15.474;2022-08-04T16:24:27;97706.56;;;32.96;36.47
27202;BME280;14717;46.924;15.474;2022-08-04T16:29:28;97715.31;;;33.08;35.98
27202;BME280;14717;46.924;15.474;2022-08-04T16:34:42;97707.09;;;32.91;36.54
27202;BME280;14717;46.924;15.474;2022-08-04T16:37:11;97702.84;;;32.99;36.43
27202;BME280;14717;46.924;15.474;2022-08-04T16:39:38;97705.59;;;32.83;36.96
27202;BME280;14717;46.924;15.474;2022-08-04T16:45:10;97707.81;;;32.75;36.65
27202;BME280;14717;46.924;15.474;2022-08-04T16:50:17;97707.59;;;32.66;36.97
27202;BME280;14717;46.924;15.474;2022-08-04T16:52:45;97702.81;;;32.60;37.31
27202;BME280;14717;46.924;15.474;2022-08-04T16:55:13;97701.72;;;32.54;36.40
27202;BME280;14717;46.924;15.474;2022-08-04T16:57:39;97699.81;;;32.48;37.01
27202;BME280;14717;46.924;15.474;2022-08-04T17:00:05;97706.13;;;32.39;37.11
27202;BME280;14717;46.924;15.474;2022-08-04T17:02:32;97701.75;;;32.31;37.66
27202;BME280;14717;46.924;15.474;2022-08-04T17:04:58;97700.41;;;32.17;38.16
27202;BME280;14717;46.924;15.474;2022-08-04T17:07:23;97705.25;;;32.20;38.55
27202;BME280;14717;46.924;15.474;2022-08-04T17:09:50;97702.63;;;32.28;38.66
27202;BME280;14717;46.924;15.474;2022-08-04T17:12:16;97703.88;;;32.27;39.12
27202;BME280;14717;46.924;15.474;2022-08-04T17:14:42;97704.91;;;32.18;39.26
27202;BME280;14717;46.924;15.474;2022-08-04T17:17:07;97706.78;;;32.05;39.99
27202;BME280;14717;46.924;15.474;2022-08-04T17:19:33;97705.78;;;31.92;39.81
27202;BME280;14717;46.924;15.474;2022-08-04T17:22:06;97703.59;;;31.77;39.88
27202;BME280;14717;46.924;15.474;2022-08-04T17:24:37;97700.47;;;31.68;40.24
27202;BME280;14717;46.924;15.474;2022-08-04T17:27:05;97701.97;;;31.76;39.85